createdAt,value
2022-08-03T00:00:00.308Z,24.98
2022-08-03T00:00:10.313Z,24.97
2022-08-03T00:00:20.308Z,24.94
2022-08-03T00:00:30.309Z,24.97
2022-08-03T00:00:40.313Z,24.98
2022-08-03T00:00:50.309Z,24.94
2022-08-03T00:01:00.305Z,24.94
2022-08-03T00:01:10.304Z,24.94
2022-08-03T00:01:20.300Z,24.97
2022-08-03T00:01:30.305Z,24.97
2022-08-03T00:01:40.313Z,24.99
2022-08-03T00:01:50.328Z,24.94
2022-08-03T00:02:00.294Z,24.94
2022-08-03T00:02:10.301Z,24.98
2022-08-03T00:02:20.299Z,24.98
2022-08-03T00:02:30.300Z,24.98
2022-08-03T00:02:40.332Z,24.98
2022-08-03T00:02:50.348Z,24.97
2022-08-03T00:03:00.355Z,24.98
2022-08-03T00:03:10.375Z,24.97
2022-08-03T00:03:20.363Z,24.92
2022-08-03T00:03:30.403Z,24.97
2022-08-03T00:03:40.290Z,24.94
2022-08-03T00:03:50.291Z,24.93
2022-08-03T00:04:00.293Z,24.94
2022-08-03T00:04:10.284Z,24.93
2022-08-03T00:04:20.280Z,24.92
2022-08-03T00:04:32.842Z,24.92
2022-08-03T00:04:40.286Z,24.89
2022-08-03T00:04:50.280Z,24.87
2022-08-03T00:05:00.279Z,24.87
2022-08-03T00:05:10.279Z,24.87
2022-08-03T00:05:20.274Z,24.87
2022-08-03T00:05:30.278Z,24.84
2022-08-03T00:05:40.291Z,24.83
2022-08-03T00:06:08.719Z,24.86
2022-08-03T00:06:13.383Z,24.83
2022-08-03T00:06:23.382Z,24.82
2022-08-03T00:06:36.989Z,24.82
2022-08-03T00:06:43.389Z,24.83
2022-08-03T00:06:53.393Z,24.82
2022-08-03T00:07:03.377Z,24.83
2022-08-03T00:07:13.375Z,24.84
2022-08-03T00:07:23.378Z,24.84
2022-08-03T00:07:33.372Z,24.83
2022-08-03T00:07:43.378Z,24.83
2022-08-03T00:07:53.373Z,24.84
2022-08-03T00:08:03.385Z,24.86
2022-08-03T00:08:13.368Z,24.86
2022-08-03T00:08:23.508Z,24.87
2022-08-03T00:08:33.368Z,24.87
2022-08-03T00:08:44.705Z,24.86
2022-08-03T00:08:53.365Z,24.84
2022-08-03T00:09:03.367Z,24.87
2022-08-03T00:09:13.358Z,24.89
2022-08-03T00:09:23.365Z,24.89
2022-08-03T00:09:35.653Z,24.89
2022-08-03T00:09:43.367Z,24.92
2022-08-03T00:09:53.357Z,24.86
2022-08-03T00:10:03.363Z,24.92
2022-08-03T00:10:13.360Z,24.93
2022-08-03T00:10:23.356Z,24.92
2022-08-03T00:10:33.356Z,24.97
2022-08-03T00:10:43.355Z,24.97
2022-08-03T00:10:53.354Z,24.98
2022-08-03T00:11:03.351Z,24.94
2022-08-03T00:11:13.348Z,24.98
2022-08-03T00:11:23.350Z,24.99
2022-08-03T00:11:33.349Z,25.01
2022-08-03T00:11:43.348Z,24.98
2022-08-03T00:11:53.349Z,24.97
2022-08-03T00:12:03.363Z,24.97
2022-08-03T00:12:13.570Z,24.98
2022-08-03T00:12:23.346Z,24.99
2022-08-03T00:12:33.344Z,24.98
2022-08-03T00:12:43.360Z,24.98
2022-08-03T00:12:53.339Z,24.97
2022-08-03T00:13:03.341Z,24.98
2022-08-03T00:13:23.334Z,24.98
2022-08-03T00:13:33.332Z,24.93
2022-08-03T00:13:43.334Z,24.92
2022-08-03T00:13:53.328Z,24.94
2022-08-03T00:14:03.334Z,24.92
2022-08-03T00:14:13.328Z,24.93
2022-08-03T00:14:23.331Z,24.92
2022-08-03T00:14:33.325Z,24.93
2022-08-03T00:14:43.326Z,24.92
2022-08-03T00:14:53.324Z,24.93
2022-08-03T00:15:03.328Z,24.87
2022-08-03T00:15:16.620Z,24.89
2022-08-03T00:15:23.322Z,24.87
2022-08-03T00:15:43.321Z,24.86
2022-08-03T00:15:53.317Z,24.87
2022-08-03T00:16:03.318Z,24.84
2022-08-03T00:16:13.324Z,24.84
2022-08-03T00:16:23.317Z,24.84
2022-08-03T00:16:33.311Z,24.83
2022-08-03T00:16:43.312Z,24.82
2022-08-03T00:16:53.323Z,24.82
2022-08-03T00:17:03.310Z,24.84
2022-08-03T00:17:13.307Z,24.83
2022-08-03T00:17:23.327Z,24.83
2022-08-03T00:17:52.126Z,24.80
2022-08-03T00:17:57.672Z,24.80
2022-08-03T00:18:02.344Z,24.75
2022-08-03T00:18:12.348Z,24.75
2022-08-03T00:18:22.344Z,24.75
2022-08-03T00:18:32.348Z,24.74
2022-08-03T00:18:42.340Z,24.75
2022-08-03T00:18:52.346Z,24.74
2022-08-03T00:19:02.382Z,24.77
2022-08-03T00:19:12.342Z,24.75
2022-08-03T00:19:22.340Z,24.75
2022-08-03T00:19:32.434Z,24.74
2022-08-03T00:19:42.338Z,24.71
2022-08-03T00:19:52.335Z,24.75
2022-08-03T00:20:02.332Z,24.74
2022-08-03T00:20:12.333Z,24.75
2022-08-03T00:20:22.333Z,24.77
2022-08-03T00:20:42.328Z,24.75
2022-08-03T00:20:52.332Z,24.75
2022-08-03T00:21:02.327Z,24.75
2022-08-03T00:21:12.327Z,24.74
2022-08-03T00:21:22.326Z,24.79
2022-08-03T00:21:32.323Z,24.75
2022-08-03T00:21:42.328Z,24.80
2022-08-03T00:21:52.325Z,24.79
2022-08-03T00:22:02.316Z,24.77
2022-08-03T00:22:12.324Z,24.80
2022-08-03T00:22:22.315Z,24.83
2022-08-03T00:22:32.318Z,24.80
2022-08-03T00:22:42.315Z,24.79
2022-08-03T00:23:02.333Z,24.83
2022-08-03T00:23:12.316Z,24.79
2022-08-03T00:23:22.310Z,24.82
2022-08-03T00:23:51.871Z,24.75
2022-08-03T00:23:57.125Z,24.80
2022-08-03T00:24:01.795Z,24.79
2022-08-03T00:24:11.800Z,24.79
2022-08-03T00:24:21.789Z,24.79
2022-08-03T00:24:31.787Z,24.80
2022-08-03T00:24:41.789Z,24.80
2022-08-03T00:24:51.785Z,24.82
2022-08-03T00:25:01.785Z,24.82
2022-08-03T00:25:26.566Z,24.83
2022-08-03T00:25:31.228Z,24.80
2022-08-03T00:25:41.224Z,24.83
2022-08-03T00:25:51.227Z,24.83
2022-08-03T00:26:01.222Z,24.83
2022-08-03T00:26:11.225Z,24.84
2022-08-03T00:26:21.227Z,24.83
2022-08-03T00:26:31.220Z,24.82
2022-08-03T00:26:41.222Z,24.83
2022-08-03T00:26:51.233Z,24.83
2022-08-03T00:27:01.214Z,24.83
2022-08-03T00:27:11.218Z,24.84
2022-08-03T00:27:21.227Z,24.86
2022-08-03T00:27:32.669Z,24.86
2022-08-03T00:27:41.213Z,24.86
2022-08-03T00:27:51.215Z,24.82
2022-08-03T00:28:01.208Z,24.82
2022-08-03T00:28:11.247Z,24.80
2022-08-03T00:28:21.214Z,24.75
2022-08-03T00:28:31.208Z,24.80
2022-08-03T00:28:41.205Z,24.80
2022-08-03T00:28:51.208Z,24.77
2022-08-03T00:29:01.206Z,24.79
2022-08-03T00:29:11.213Z,24.77
2022-08-03T00:29:21.214Z,24.75
2022-08-03T00:29:31.200Z,24.71
2022-08-03T00:29:59.707Z,24.74
2022-08-03T00:30:04.687Z,24.74
2022-08-03T00:30:09.353Z,24.74
2022-08-03T00:30:19.352Z,24.70
2022-08-03T00:30:30.793Z,24.68
2022-08-03T00:30:39.349Z,24.68
2022-08-03T00:30:49.349Z,24.67
2022-08-03T00:30:59.351Z,24.67
2022-08-03T00:31:09.371Z,24.67
2022-08-03T00:31:23.129Z,24.67
2022-08-03T00:31:51.586Z,24.66
2022-08-03T00:32:00.117Z,24.67
2022-08-03T00:32:05.214Z,24.66
2022-08-03T00:32:15.390Z,24.67
2022-08-03T00:32:25.207Z,24.67
2022-08-03T00:32:35.211Z,24.66
2022-08-03T00:32:45.575Z,24.66
2022-08-03T00:32:55.255Z,24.67
2022-08-03T00:33:05.206Z,24.64
2022-08-03T00:33:15.222Z,24.71
2022-08-03T00:33:25.204Z,24.70
2022-08-03T00:33:59.388Z,24.68
2022-08-03T00:34:07.643Z,24.68
2022-08-03T00:34:13.030Z,24.67
2022-08-03T00:34:36.408Z,24.68
2022-08-03T00:35:07.052Z,24.68
2022-08-03T00:35:36.570Z,24.66
2022-08-03T00:35:50.987Z,24.68
2022-08-03T00:35:55.768Z,24.61
2022-08-03T00:36:01.458Z,24.59
2022-08-03T00:36:11.408Z,24.59
2022-08-03T00:36:21.436Z,24.63
2022-08-03T00:36:31.407Z,24.60
2022-08-03T00:36:41.460Z,24.55
2022-08-03T00:36:51.410Z,24.59
2022-08-03T00:37:01.406Z,24.59
2022-08-03T00:37:11.406Z,24.56
2022-08-03T00:37:21.409Z,24.56
2022-08-03T00:37:44.966Z,24.60
2022-08-03T00:37:49.633Z,24.60
2022-08-03T00:37:59.629Z,24.60
2022-08-03T00:38:09.639Z,24.59
2022-08-03T00:38:19.624Z,24.56
2022-08-03T00:38:29.627Z,24.59
2022-08-03T00:38:39.622Z,24.56
2022-08-03T00:38:49.624Z,24.56
2022-08-03T00:38:59.622Z,24.59
2022-08-03T00:39:09.623Z,24.59
2022-08-03T00:39:19.620Z,24.56
2022-08-03T00:39:29.624Z,24.52
2022-08-03T00:39:39.620Z,24.59
2022-08-03T00:39:49.632Z,24.56
2022-08-03T00:39:59.836Z,24.60
2022-08-03T00:40:09.616Z,24.61
2022-08-03T00:40:19.614Z,24.61
2022-08-03T00:40:29.612Z,24.64
2022-08-03T00:40:39.623Z,24.66
2022-08-03T00:40:49.609Z,24.67
2022-08-03T00:40:59.616Z,24.70
2022-08-03T00:41:09.610Z,24.68
2022-08-03T00:41:19.610Z,24.71
2022-08-03T00:41:29.602Z,24.71
2022-08-03T00:41:39.606Z,24.71
2022-08-03T00:41:49.656Z,24.68
2022-08-03T00:41:59.607Z,24.70
2022-08-03T00:42:09.776Z,24.70
2022-08-03T00:42:19.603Z,24.68
2022-08-03T00:42:29.599Z,24.70
2022-08-03T00:42:39.600Z,24.74
2022-08-03T00:42:49.599Z,24.75
2022-08-03T00:42:59.601Z,24.71
2022-08-03T00:43:09.594Z,24.70
2022-08-03T00:43:19.597Z,24.71
2022-08-03T00:43:29.591Z,24.70
2022-08-03T00:43:39.594Z,24.74
2022-08-03T00:43:49.587Z,24.71
2022-08-03T00:43:59.591Z,24.70
2022-08-03T00:44:09.589Z,24.71
2022-08-03T00:44:19.591Z,24.71
2022-08-03T00:44:29.586Z,24.71
2022-08-03T00:44:39.588Z,24.67
2022-08-03T00:44:49.584Z,24.67
2022-08-03T00:44:59.586Z,24.66
2022-08-03T00:45:09.581Z,24.66
2022-08-03T00:45:19.598Z,24.66
2022-08-03T00:45:29.578Z,24.66
2022-08-03T00:45:39.580Z,24.64
2022-08-03T00:45:50.164Z,24.66
2022-08-03T00:45:59.581Z,24.64
2022-08-03T00:46:09.570Z,24.63
2022-08-03T00:46:21.977Z,24.67
2022-08-03T00:46:29.570Z,24.64
2022-08-03T00:46:39.570Z,24.64
2022-08-03T00:46:49.570Z,24.66
2022-08-03T00:46:59.592Z,24.64
2022-08-03T00:47:09.565Z,24.61
2022-08-03T00:47:19.568Z,24.63
2022-08-03T00:47:29.566Z,24.63
2022-08-03T00:47:39.568Z,24.61
2022-08-03T00:47:49.564Z,24.66
2022-08-03T00:47:59.564Z,24.66
2022-08-03T00:48:24.923Z,24.66
2022-08-03T00:48:38.022Z,24.64
2022-08-03T00:48:42.689Z,24.64
2022-08-03T00:48:52.782Z,24.66
2022-08-03T00:49:02.764Z,24.66
2022-08-03T00:49:12.772Z,24.67
2022-08-03T00:49:22.708Z,24.63
2022-08-03T00:49:32.743Z,24.63
2022-08-03T00:49:42.677Z,24.61
2022-08-03T00:49:52.680Z,24.61
2022-08-03T00:50:02.675Z,24.63
2022-08-03T00:50:12.681Z,24.61
2022-08-03T00:50:22.672Z,24.56
2022-08-03T00:50:32.674Z,24.56
2022-08-03T00:50:42.673Z,24.59
2022-08-03T00:50:52.702Z,24.60
2022-08-03T00:51:02.665Z,24.59
2022-08-03T00:51:12.671Z,24.55
2022-08-03T00:51:22.666Z,24.55
2022-08-03T00:51:32.674Z,24.53
2022-08-03T00:51:42.663Z,24.53
2022-08-03T00:51:52.671Z,24.55
2022-08-03T00:52:07.708Z,24.53
2022-08-03T00:52:14.178Z,24.53
2022-08-03T00:52:22.910Z,24.53
2022-08-03T00:52:32.666Z,24.53
2022-08-03T00:52:42.657Z,24.53
2022-08-03T00:52:52.669Z,24.53
2022-08-03T00:53:02.655Z,24.52
2022-08-03T00:53:12.657Z,24.53
2022-08-03T00:53:22.653Z,24.53
2022-08-03T00:53:32.657Z,24.51
2022-08-03T00:53:42.653Z,24.51
2022-08-03T00:53:52.650Z,24.51
2022-08-03T00:54:02.650Z,24.51
2022-08-03T00:54:12.651Z,24.52
2022-08-03T00:54:22.648Z,24.51
2022-08-03T00:54:32.647Z,24.48
2022-08-03T00:54:42.644Z,24.46
2022-08-03T00:54:52.644Z,24.51
2022-08-03T00:55:02.640Z,24.48
2022-08-03T00:55:12.643Z,24.52
2022-08-03T00:55:22.652Z,24.46
2022-08-03T00:55:32.646Z,24.48
2022-08-03T00:55:42.639Z,24.46
2022-08-03T00:55:52.637Z,24.46
2022-08-03T00:56:02.634Z,24.49
2022-08-03T00:56:12.647Z,24.49
2022-08-03T00:56:22.630Z,24.49
2022-08-03T00:56:32.633Z,24.48
2022-08-03T00:57:00.029Z,24.49
2022-08-03T00:57:04.967Z,24.48
2022-08-03T00:57:09.629Z,24.52
2022-08-03T00:57:19.639Z,24.51
2022-08-03T00:57:29.628Z,24.51
2022-08-03T00:57:39.630Z,24.53
2022-08-03T00:57:49.628Z,24.55
2022-08-03T00:57:59.647Z,24.53
2022-08-03T00:58:09.620Z,24.56
2022-08-03T00:58:19.625Z,24.59
2022-08-03T00:58:29.623Z,24.56
2022-08-03T00:58:39.622Z,24.61
2022-08-03T00:58:49.618Z,24.60
2022-08-03T00:58:59.621Z,24.63
2022-08-03T00:59:09.615Z,24.61
2022-08-03T00:59:19.634Z,24.63
2022-08-03T00:59:29.615Z,24.64
2022-08-03T00:59:39.628Z,24.66
2022-08-03T00:59:49.614Z,24.64
2022-08-03T00:59:59.612Z,24.63
2022-08-03T01:00:09.610Z,24.64
2022-08-03T01:00:19.614Z,24.66
2022-08-03T01:00:29.607Z,24.66
2022-08-03T01:00:39.613Z,24.66
2022-08-03T01:00:49.634Z,24.66
2022-08-03T01:00:59.668Z,24.63
2022-08-03T01:01:09.659Z,24.64
2022-08-03T01:01:19.694Z,24.64
2022-08-03T01:01:32.309Z,24.63
2022-08-03T01:01:39.668Z,24.67
2022-08-03T01:01:49.744Z,24.64
2022-08-03T01:01:59.613Z,24.66
2022-08-03T01:02:09.609Z,24.66
2022-08-03T01:02:19.597Z,24.68
2022-08-03T01:02:29.597Z,24.66
2022-08-03T01:02:39.603Z,24.66
2022-08-03T01:02:49.595Z,24.64
2022-08-03T01:02:59.610Z,24.64
2022-08-03T01:03:09.589Z,24.67
2022-08-03T01:03:19.591Z,24.68
2022-08-03T01:03:29.587Z,24.64
2022-08-03T01:03:39.592Z,24.68
2022-08-03T01:03:49.588Z,24.70
2022-08-03T01:03:59.590Z,24.64
2022-08-03T01:04:09.596Z,24.68
2022-08-03T01:04:19.584Z,24.68
2022-08-03T01:04:29.581Z,24.70
2022-08-03T01:04:39.583Z,24.71
2022-08-03T01:04:49.577Z,24.70
2022-08-03T01:04:59.580Z,24.68
2022-08-03T01:05:09.578Z,24.68
2022-08-03T01:05:19.580Z,24.70
2022-08-03T01:05:29.590Z,24.70
2022-08-03T01:05:39.575Z,24.71
2022-08-03T01:05:49.571Z,24.68
2022-08-03T01:05:59.570Z,24.71
2022-08-03T01:06:19.571Z,24.68
2022-08-03T01:06:29.565Z,24.68
2022-08-03T01:06:39.568Z,24.68
2022-08-03T01:06:49.564Z,24.68
2022-08-03T01:06:59.567Z,24.67
2022-08-03T01:07:11.111Z,24.67
2022-08-03T01:07:19.567Z,24.67
2022-08-03T01:07:29.560Z,24.68
2022-08-03T01:07:39.562Z,24.68
2022-08-03T01:07:49.557Z,24.70
2022-08-03T01:07:59.563Z,24.70
2022-08-03T01:08:09.556Z,24.67
2022-08-03T01:08:19.558Z,24.67
2022-08-03T01:08:29.554Z,24.66
2022-08-03T01:08:39.555Z,24.63
2022-08-03T01:08:49.549Z,24.63
2022-08-03T01:08:59.557Z,24.68
2022-08-03T01:09:09.578Z,24.64
2022-08-03T01:09:19.548Z,24.64
2022-08-03T01:09:29.547Z,24.64
2022-08-03T01:09:39.555Z,24.63
2022-08-03T01:09:49.544Z,24.66
2022-08-03T01:09:59.546Z,24.60
2022-08-03T01:10:09.542Z,24.64
2022-08-03T01:10:19.546Z,24.66
2022-08-03T01:10:29.543Z,24.64
2022-08-03T01:10:39.560Z,24.64
2022-08-03T01:10:49.538Z,24.63
2022-08-03T01:10:59.540Z,24.61
2022-08-03T01:11:09.536Z,24.64
2022-08-03T01:11:19.538Z,24.64
2022-08-03T01:11:29.535Z,24.63
2022-08-03T01:12:00.767Z,24.61
2022-08-03T01:12:06.074Z,24.61
2022-08-03T01:12:10.807Z,24.61
2022-08-03T01:12:20.738Z,24.61
2022-08-03T01:12:30.744Z,24.60
2022-08-03T01:12:40.739Z,24.61
2022-08-03T01:12:50.743Z,24.64
2022-08-03T01:13:00.747Z,24.64
2022-08-03T01:14:00.240Z,24.66
2022-08-03T01:14:19.029Z,24.67
2022-08-03T01:14:26.368Z,24.67
2022-08-03T01:14:31.054Z,24.67
2022-08-03T01:14:41.058Z,24.71
2022-08-03T01:14:51.053Z,24.70
2022-08-03T01:15:01.057Z,24.68
2022-08-03T01:15:11.053Z,24.68
2022-08-03T01:15:21.055Z,24.67
2022-08-03T01:15:31.055Z,24.67
2022-08-03T01:15:41.051Z,24.64
2022-08-03T01:15:51.054Z,24.66
2022-08-03T01:16:01.049Z,24.67
2022-08-03T01:16:11.044Z,24.66
2022-08-03T01:16:21.047Z,24.67
2022-08-03T01:16:36.637Z,24.67
2022-08-03T01:16:41.852Z,24.64
2022-08-03T01:16:51.839Z,24.67
2022-08-03T01:17:01.842Z,24.64
2022-08-03T01:17:11.841Z,24.63
2022-08-03T01:17:21.840Z,24.63
2022-08-03T01:17:31.833Z,24.64
2022-08-03T01:17:41.836Z,24.64
2022-08-03T01:17:51.847Z,24.63
2022-08-03T01:18:01.835Z,24.64
2022-08-03T01:18:11.829Z,24.63
2022-08-03T01:18:21.831Z,24.63
2022-08-03T01:18:31.834Z,24.60
2022-08-03T01:18:41.830Z,24.60
2022-08-03T01:18:51.824Z,24.59
2022-08-03T01:19:01.847Z,24.59
2022-08-03T01:19:11.827Z,24.56
2022-08-03T01:19:21.825Z,24.55
2022-08-03T01:19:31.838Z,24.55
2022-08-03T01:19:41.826Z,24.56
2022-08-03T01:19:51.818Z,24.59
2022-08-03T01:20:02.001Z,24.61
2022-08-03T01:20:11.845Z,24.60
2022-08-03T01:20:21.817Z,24.59
2022-08-03T01:20:31.814Z,24.59
2022-08-03T01:20:41.815Z,24.59
2022-08-03T01:20:51.809Z,24.59
2022-08-03T01:21:01.813Z,24.59
2022-08-03T01:21:11.810Z,24.59
2022-08-03T01:21:21.817Z,24.59
2022-08-03T01:21:31.808Z,24.59
2022-08-03T01:21:41.811Z,24.56
2022-08-03T01:21:51.805Z,24.56
2022-08-03T01:22:01.807Z,24.61
2022-08-03T01:22:11.803Z,24.60
2022-08-03T01:22:21.805Z,24.61
2022-08-03T01:22:31.803Z,24.61
2022-08-03T01:22:41.801Z,24.61
2022-08-03T01:22:51.800Z,24.63
2022-08-03T01:23:01.802Z,24.60
2022-08-03T01:23:11.796Z,24.61
2022-08-03T01:23:21.801Z,24.61
2022-08-03T01:23:31.794Z,24.63
2022-08-03T01:23:41.825Z,24.63
2022-08-03T01:23:51.793Z,24.63
2022-08-03T01:24:01.799Z,24.60
2022-08-03T01:24:11.794Z,24.61
2022-08-03T01:24:21.794Z,24.64
2022-08-03T01:24:31.791Z,24.61
2022-08-03T01:24:41.784Z,24.60
2022-08-03T01:24:51.788Z,24.59
2022-08-03T01:25:01.785Z,24.59
2022-08-03T01:25:11.786Z,24.56
2022-08-03T01:25:21.796Z,24.56
2022-08-03T01:25:31.794Z,24.56
2022-08-03T01:25:41.779Z,24.55
2022-08-03T01:25:54.457Z,24.56
2022-08-03T01:26:01.778Z,24.56
2022-08-03T01:26:11.781Z,24.52
2022-08-03T01:26:21.777Z,24.53
2022-08-03T01:26:31.781Z,24.49
2022-08-03T01:26:41.773Z,24.48
2022-08-03T01:26:51.775Z,24.44
2022-08-03T01:27:01.900Z,24.45
2022-08-03T01:27:11.773Z,24.44
2022-08-03T01:27:21.769Z,24.39
2022-08-03T01:27:31.771Z,24.39
2022-08-03T01:27:41.765Z,24.37
2022-08-03T01:27:51.771Z,24.34
2022-08-03T01:28:01.763Z,24.33
2022-08-03T01:28:11.768Z,24.31
2022-08-03T01:28:21.764Z,24.30
2022-08-03T01:28:31.763Z,24.30
2022-08-03T01:28:41.760Z,24.29
2022-08-03T01:28:51.763Z,24.26
2022-08-03T01:29:01.760Z,24.27
2022-08-03T01:29:11.758Z,24.27
2022-08-03T01:29:21.757Z,24.29
2022-08-03T01:29:41.755Z,24.24
2022-08-03T01:29:51.800Z,24.26
2022-08-03T01:30:01.749Z,24.24
2022-08-03T01:30:11.752Z,24.26
2022-08-03T01:30:21.764Z,24.26
2022-08-03T01:30:31.754Z,24.24
2022-08-03T01:30:41.749Z,24.26
2022-08-03T01:30:51.746Z,24.26
2022-08-03T01:31:01.746Z,24.26
2022-08-03T01:31:11.748Z,24.23
2022-08-03T01:31:21.741Z,24.26
2022-08-03T01:31:31.744Z,24.24
2022-08-03T01:32:52.446Z,24.23
2022-08-03T01:33:06.041Z,24.24
2022-08-03T01:33:11.318Z,24.27
2022-08-03T01:33:20.965Z,24.30
2022-08-03T01:33:30.959Z,24.31
2022-08-03T01:33:40.960Z,24.33
2022-08-03T01:33:50.957Z,24.33
2022-08-03T01:34:00.961Z,24.36
2022-08-03T01:34:14.662Z,24.33
2022-08-03T01:34:20.957Z,24.33
2022-08-03T01:34:30.954Z,24.36
2022-08-03T01:34:40.957Z,24.37
2022-08-03T01:34:50.950Z,24.33
2022-08-03T01:35:00.955Z,24.34
2022-08-03T01:35:10.952Z,24.33
2022-08-03T01:35:20.949Z,24.31
2022-08-03T01:35:30.978Z,24.31
2022-08-03T01:35:40.949Z,24.31
2022-08-03T01:35:50.945Z,24.30
2022-08-03T01:36:00.944Z,24.33
2022-08-03T01:36:10.940Z,24.30
2022-08-03T01:36:20.943Z,24.33
2022-08-03T01:36:30.940Z,24.29
2022-08-03T01:36:40.962Z,24.29
2022-08-03T01:36:50.934Z,24.30
2022-08-03T01:37:00.939Z,24.30
2022-08-03T01:37:10.937Z,24.29
2022-08-03T01:37:20.937Z,24.31
2022-08-03T01:37:30.935Z,24.30
2022-08-03T01:37:40.934Z,24.33
2022-08-03T01:37:50.931Z,24.31
2022-08-03T01:38:00.935Z,24.37
2022-08-03T01:38:10.926Z,24.33
2022-08-03T01:38:20.934Z,24.34
2022-08-03T01:38:30.927Z,24.37
2022-08-03T01:38:40.925Z,24.37
2022-08-03T01:38:50.940Z,24.39
2022-08-03T01:39:00.924Z,24.37
2022-08-03T01:39:10.920Z,24.41
2022-08-03T01:39:20.925Z,24.42
2022-08-03T01:39:30.917Z,24.39
2022-08-03T01:39:40.920Z,24.39
2022-08-03T01:39:50.949Z,24.42
2022-08-03T01:40:00.917Z,24.41
2022-08-03T01:40:10.912Z,24.39
2022-08-03T01:40:20.920Z,24.37
2022-08-03T01:40:30.911Z,24.37
2022-08-03T01:40:40.929Z,24.41
2022-08-03T01:40:50.910Z,24.42
2022-08-03T01:41:00.912Z,24.41
2022-08-03T01:41:10.910Z,24.42
2022-08-03T01:41:20.912Z,24.39
2022-08-03T01:41:30.909Z,24.39
2022-08-03T01:41:40.911Z,24.41
2022-08-03T01:41:50.901Z,24.44
2022-08-03T01:42:00.922Z,24.39
2022-08-03T01:42:10.898Z,24.44
2022-08-03T01:42:20.904Z,24.42
2022-08-03T01:42:30.904Z,24.44
2022-08-03T01:42:40.903Z,24.44
2022-08-03T01:42:50.895Z,24.45
2022-08-03T01:43:00.898Z,24.42
2022-08-03T01:43:10.894Z,24.42
2022-08-03T01:43:55.388Z,24.39
2022-08-03T01:44:33.362Z,24.41
2022-08-03T01:44:38.028Z,24.34
2022-08-03T01:44:48.023Z,24.36
2022-08-03T01:44:58.032Z,24.37
2022-08-03T01:45:08.018Z,24.34
2022-08-03T01:45:18.023Z,24.34
2022-08-03T01:45:28.021Z,24.34
2022-08-03T01:45:38.396Z,24.36
2022-08-03T01:45:48.016Z,24.36
2022-08-03T01:45:58.024Z,24.39
2022-08-03T01:46:08.014Z,24.36
2022-08-03T01:46:18.018Z,24.39
2022-08-03T01:46:28.015Z,24.36
2022-08-03T01:46:38.014Z,24.36
2022-08-03T01:46:48.009Z,24.36
2022-08-03T01:46:58.014Z,24.36
2022-08-03T01:47:08.007Z,24.39
2022-08-03T01:47:18.013Z,24.39
2022-08-03T01:47:28.008Z,24.37
2022-08-03T01:47:38.099Z,24.41
2022-08-03T01:47:48.010Z,24.42
2022-08-03T01:47:58.005Z,24.41
2022-08-03T01:48:08.000Z,24.42
2022-08-03T01:48:18.003Z,24.41
2022-08-03T01:48:27.998Z,24.41
2022-08-03T01:48:38.002Z,24.41
2022-08-03T01:48:48.006Z,24.37
2022-08-03T01:48:58.076Z,24.39
2022-08-03T01:49:09.441Z,24.37
2022-08-03T01:49:18.047Z,24.36
2022-08-03T01:49:28.069Z,24.33
2022-08-03T01:49:38.090Z,24.31
2022-08-03T01:49:48.109Z,24.33
2022-08-03T01:49:57.996Z,24.30
2022-08-03T01:50:07.989Z,24.27
2022-08-03T01:50:18.285Z,24.27
2022-08-03T01:50:27.989Z,24.23
2022-08-03T01:50:37.989Z,24.24
2022-08-03T01:50:47.987Z,24.21
2022-08-03T01:50:57.983Z,24.23
2022-08-03T01:51:07.984Z,24.21
2022-08-03T01:51:17.990Z,24.19
2022-08-03T01:51:56.646Z,24.18
2022-08-03T01:52:09.122Z,24.18
2022-08-03T01:52:13.831Z,24.15
2022-08-03T01:52:23.794Z,24.16
2022-08-03T01:52:33.787Z,24.16
2022-08-03T01:52:43.789Z,24.18
2022-08-03T01:52:53.786Z,24.18
2022-08-03T01:53:03.785Z,24.19
2022-08-03T01:53:13.780Z,24.21
2022-08-03T01:53:23.781Z,24.18
2022-08-03T01:53:33.794Z,24.21
2022-08-03T01:53:43.779Z,24.21
2022-08-03T01:53:53.779Z,24.26
2022-08-03T01:54:03.782Z,24.24
2022-08-03T01:54:13.778Z,24.24
2022-08-03T01:54:23.782Z,24.27
2022-08-03T01:54:33.772Z,24.27
2022-08-03T01:54:43.772Z,24.27
2022-08-03T01:54:53.771Z,24.26
2022-08-03T01:55:03.770Z,24.23
2022-08-03T01:55:13.765Z,24.26
2022-08-03T01:55:23.769Z,24.23
2022-08-03T01:55:33.767Z,24.23
2022-08-03T01:55:43.771Z,24.21
2022-08-03T01:55:53.762Z,24.19
2022-08-03T01:56:03.771Z,24.18
2022-08-03T01:56:13.759Z,24.15
2022-08-03T01:56:23.762Z,24.15
2022-08-03T01:56:33.757Z,24.15
2022-08-03T01:56:43.765Z,24.14
2022-08-03T01:56:53.780Z,24.14
2022-08-03T01:57:03.760Z,24.15
2022-08-03T01:57:13.799Z,24.15
2022-08-03T01:57:23.752Z,24.12
2022-08-03T01:57:33.751Z,24.15
2022-08-03T01:58:10.805Z,24.14
2022-08-03T01:58:15.477Z,24.12
2022-08-03T01:58:25.481Z,24.16
2022-08-03T01:58:35.486Z,24.14
2022-08-03T01:58:45.478Z,24.14
2022-08-03T01:58:55.477Z,24.12
2022-08-03T01:59:05.474Z,24.11
2022-08-03T01:59:15.470Z,24.12
2022-08-03T01:59:25.472Z,24.14
2022-08-03T01:59:35.470Z,24.15
2022-08-03T01:59:45.470Z,24.16
2022-08-03T01:59:55.472Z,24.18
2022-08-03T02:00:05.470Z,24.18
2022-08-03T02:00:15.464Z,24.23
2022-08-03T02:00:25.469Z,24.23
2022-08-03T02:00:35.465Z,24.26
2022-08-03T02:00:45.514Z,24.24
2022-08-03T02:00:55.497Z,24.27
2022-08-03T02:01:05.512Z,24.27
2022-08-03T02:01:15.526Z,24.29
2022-08-03T02:01:25.558Z,24.29
2022-08-03T02:02:58.833Z,24.30
2022-08-03T02:03:09.812Z,24.33
2022-08-03T02:03:19.805Z,24.29
2022-08-03T02:03:29.805Z,24.27
2022-08-03T02:03:59.576Z,24.31
2022-08-03T02:04:05.454Z,24.30
2022-08-03T02:04:10.116Z,24.30
2022-08-03T02:04:20.117Z,24.30
2022-08-03T02:04:30.111Z,24.30
2022-08-03T02:04:40.117Z,24.31
2022-08-03T02:04:50.113Z,24.30
2022-08-03T02:05:00.116Z,24.31
2022-08-03T02:05:10.628Z,24.33
2022-08-03T02:05:20.110Z,24.31
2022-08-03T02:05:30.112Z,24.33
2022-08-03T02:05:40.109Z,24.30
2022-08-03T02:06:01.220Z,24.30
2022-08-03T02:07:02.189Z,24.27
2022-08-03T02:07:07.693Z,24.26
2022-08-03T02:07:12.373Z,24.26
2022-08-03T02:07:22.370Z,24.26
2022-08-03T02:07:32.370Z,24.27
2022-08-03T02:07:42.364Z,24.23
2022-08-03T02:07:52.365Z,24.24
2022-08-03T02:08:02.375Z,24.26
2022-08-03T02:08:12.376Z,24.24
2022-08-03T02:08:22.357Z,24.23
2022-08-03T02:08:32.359Z,24.19
2022-08-03T02:08:42.355Z,24.23
2022-08-03T02:08:52.359Z,24.21
2022-08-03T02:09:02.354Z,24.24
2022-08-03T02:09:12.356Z,24.26
2022-08-03T02:09:22.352Z,24.27
2022-08-03T02:09:32.356Z,24.26
2022-08-03T02:09:42.358Z,24.27
2022-08-03T02:09:52.351Z,24.26
2022-08-03T02:10:02.349Z,24.29
2022-08-03T02:10:12.350Z,24.30
2022-08-03T02:10:34.769Z,24.29
2022-08-03T02:10:40.146Z,24.29
2022-08-03T02:10:44.807Z,24.29
2022-08-03T02:10:54.814Z,24.31
2022-08-03T02:11:04.810Z,24.30
2022-08-03T02:11:14.809Z,24.26
2022-08-03T02:11:24.804Z,24.29
2022-08-03T02:11:34.808Z,24.29
2022-08-03T02:11:44.804Z,24.29
2022-08-03T02:11:54.806Z,24.26
2022-08-03T02:12:04.803Z,24.29
2022-08-03T02:12:15.197Z,24.24
2022-08-03T02:12:24.798Z,24.23
2022-08-03T02:12:34.802Z,24.24
2022-08-03T02:12:46.024Z,24.24
2022-08-03T02:12:54.813Z,24.21
2022-08-03T02:13:04.796Z,24.26
2022-08-03T02:13:14.807Z,24.24
2022-08-03T02:13:24.791Z,24.24
2022-08-03T02:13:34.794Z,24.21
2022-08-03T02:13:44.789Z,24.23
2022-08-03T02:13:54.792Z,24.23
2022-08-03T02:14:04.792Z,24.21
2022-08-03T02:14:14.790Z,24.18
2022-08-03T02:14:24.784Z,24.16
2022-08-03T02:14:34.785Z,24.16
2022-08-03T02:14:44.783Z,24.12
2022-08-03T02:14:54.784Z,24.06
2022-08-03T02:15:04.785Z,24.11
2022-08-03T02:15:14.780Z,24.14
2022-08-03T02:15:24.781Z,24.15
2022-08-03T02:15:34.783Z,24.15
2022-08-03T02:15:44.779Z,24.12
2022-08-03T02:15:54.779Z,24.15
2022-08-03T02:16:04.776Z,24.15
2022-08-03T02:16:14.782Z,24.16
2022-08-03T02:16:24.773Z,24.16
2022-08-03T02:16:34.783Z,24.14
2022-08-03T02:16:44.773Z,24.15
2022-08-03T02:16:54.774Z,24.12
2022-08-03T02:17:04.767Z,24.14
2022-08-03T02:17:14.770Z,24.15
2022-08-03T02:17:38.954Z,24.19
2022-08-03T02:17:44.324Z,24.15
2022-08-03T02:17:48.984Z,24.19
2022-08-03T02:17:58.989Z,24.16
2022-08-03T02:18:08.983Z,24.14
2022-08-03T02:18:18.986Z,24.14
2022-08-03T02:18:28.982Z,24.12
2022-08-03T02:18:38.983Z,24.09
2022-08-03T02:18:48.981Z,24.05